createdAt,value
2023-03-02T00:00:15.351Z,54.78
2023-03-02T00:05:16.969Z,57.47
2023-03-02T00:10:18.513Z,58.05
2023-03-02T00:15:20.028Z,53.10
2023-03-02T00:20:21.571Z,50.33
2023-03-02T00:25:23.316Z,54.03
2023-03-02T00:30:24.836Z,50.80
2023-03-02T00:35:27.096Z,52.35
2023-03-02T00:40:28.624Z,47.38
2023-03-02T00:45:30.411Z,50.45
2023-03-02T00:50:32.022Z,51.22
2023-03-02T00:55:33.620Z,50.10
2023-03-02T01:00:37.106Z,45.35
2023-03-02T01:05:38.802Z,47.70
2023-03-02T01:10:40.540Z,44.47
2023-03-02T01:15:42.063Z,44.83
2023-03-02T01:20:43.600Z,44.35
2023-03-02T01:25:45.161Z,43.60
2023-03-02T01:30:47.771Z,42.95
2023-03-02T01:35:49.577Z,37.15
2023-03-02T01:40:51.122Z,34.70
2023-03-02T01:45:57.409Z,38.30
2023-03-02T01:51:02.053Z,39.53
2023-03-02T01:56:04.820Z,39.03
2023-03-02T02:01:15.252Z,38.88
2023-03-02T02:06:25.006Z,35.58
2023-03-02T02:11:26.756Z,31.60
2023-03-02T02:16:31.678Z,34.83
2023-03-02T02:21:34.278Z,34.30
2023-03-02T02:26:41.854Z,36.95
2023-03-02T02:31:48.298Z,36.10
2023-03-02T02:36:56.076Z,27.23
2023-03-02T02:42:02.853Z,34.50
2023-03-02T02:47:15.011Z,37.08
2023-03-02T02:52:19.723Z,40.03
2023-03-02T02:57:25.422Z,37.80
2023-03-02T03:02:30.858Z,40.67
2023-03-02T03:07:32.769Z,40.35
2023-03-02T03:12:35.284Z,42.38
2023-03-02T03:17:36.832Z,38.22
2023-03-02T03:22:38.767Z,40.83
2023-03-02T03:27:42.719Z,45.22
2023-03-02T03:32:44.548Z,44.50
2023-03-02T03:37:48.539Z,40.00
2023-03-02T03:42:50.101Z,39.08
2023-03-02T03:47:51.605Z,45.05
2023-03-02T03:52:53.122Z,38.95
2023-03-02T03:57:55.363Z,44.70
2023-03-02T04:02:56.976Z,47.10
2023-03-02T04:08:02.090Z,45.63
2023-03-02T04:13:04.348Z,48.30
2023-03-02T04:18:05.959Z,45.97
2023-03-02T04:23:07.507Z,45.92
2023-03-02T04:28:09.063Z,49.13
2023-03-02T04:33:11.132Z,52.08
2023-03-02T04:38:14.012Z,49.75
2023-03-02T04:43:15.535Z,50.85
2023-03-02T04:48:17.263Z,54.30
2023-03-02T04:53:18.820Z,53.38
2023-03-02T04:58:20.502Z,53.13
2023-03-02T05:03:22.048Z,55.60
2023-03-02T05:08:24.355Z,51.72
2023-03-02T05:13:26.642Z,51.60
2023-03-02T05:18:28.195Z,52.78
2023-03-02T05:23:31.554Z,42.22
2023-03-02T05:28:33.405Z,51.88
2023-03-02T05:33:35.052Z,58.53
2023-03-02T05:38:36.758Z,54.45
2023-03-02T05:43:39.520Z,50.30
2023-03-02T05:48:42.176Z,49.70
2023-03-02T05:53:43.784Z,51.45
2023-03-02T05:58:45.308Z,55.53
2023-03-02T06:03:46.820Z,54.53
2023-03-02T06:08:48.332Z,52.63
2023-03-02T06:13:49.882Z,53.08
2023-03-02T06:18:51.440Z,57.67
2023-03-02T06:23:52.974Z,55.58
2023-03-02T06:28:54.469Z,53.45
2023-03-02T06:33:56.046Z,51.08
2023-03-02T06:38:57.596Z,47.63
2023-03-02T06:44:00.739Z,51.80
2023-03-02T06:49:02.520Z,52.28
2023-03-02T06:54:06.922Z,62.47
2023-03-02T06:59:08.784Z,50.65
2023-03-02T07:04:10.305Z,59.65
2023-03-02T07:09:11.837Z,59.90
2023-03-02T07:14:13.339Z,60.10
2023-03-02T07:19:14.964Z,57.70
2023-03-02T07:24:16.717Z,58.70
2023-03-02T07:29:18.252Z,63.65
2023-03-02T07:34:19.742Z,59.03
2023-03-02T07:39:21.468Z,64.57
2023-03-02T07:44:22.964Z,63.58
2023-03-02T07:49:24.691Z,59.65
2023-03-02T07:54:27.768Z,55.95
2023-03-02T07:59:29.450Z,59.95
2023-03-02T08:04:31.791Z,58.33
2023-03-02T08:09:33.330Z,61.90
2023-03-02T08:14:34.926Z,66.07
2023-03-02T08:19:36.567Z,61.03
2023-03-02T08:24:40.274Z,60.15
2023-03-02T08:29:42.328Z,67.03
2023-03-02T08:34:43.848Z,60.50
2023-03-02T08:39:45.369Z,73.65
2023-03-02T08:44:46.860Z,64.40
2023-03-02T08:49:49.833Z,56.97
2023-03-02T08:54:51.442Z,52.50
2023-03-02T08:59:53.064Z,67.07
2023-03-02T09:04:55.765Z,78.55
2023-03-02T09:09:57.392Z,78.60
2023-03-02T09:14:58.886Z,63.50
2023-03-02T09:20:00.452Z,67.28
2023-03-02T09:25:03.768Z,63.22
2023-03-02T09:30:05.889Z,69.45
2023-03-02T09:35:08.557Z,50.58
2023-03-02T09:40:20.514Z,58.42
2023-03-02T09:45:33.527Z,64.72
2023-03-02T09:50:39.493Z,54.67
2023-03-02T09:55:41.053Z,54.33
2023-03-02T10:00:44.966Z,50.10
2023-03-02T10:05:49.026Z,51.10
2023-03-02T10:10:58.079Z,56.92
2023-03-02T10:16:24.681Z,50.10
2023-03-02T10:21:58.120Z,50.45
2023-03-02T10:27:17.858Z,47.20
2023-03-02T10:32:24.416Z,53.40
2023-03-02T10:37:30.106Z,54.40
2023-03-02T10:42:37.727Z,53.47
2023-03-02T10:47:39.263Z,53.97
2023-03-02T10:52:59.520Z,51.42
2023-03-02T10:58:31.171Z,50.13
2023-03-02T11:03:34.562Z,57.20
2023-03-02T11:08:36.137Z,51.95
2023-03-02T11:13:39.182Z,50.65
2023-03-02T11:18:48.668Z,54.30
2023-03-02T11:24:06.130Z,49.35
2023-03-02T11:29:22.961Z,52.10
2023-03-02T11:34:36.369Z,49.72
2023-03-02T11:39:56.306Z,51.90
2023-03-02T11:45:02.566Z,51.45
2023-03-02T11:50:06.878Z,51.03
2023-03-02T11:55:22.607Z,44.03
2023-03-02T12:00:42.388Z,40.90
2023-03-02T12:05:47.064Z,40.58
2023-03-02T12:10:59.638Z,39.22
2023-03-02T12:16:01.862Z,38.40
2023-03-02T12:21:11.437Z,42.80
2023-03-02T12:26:22.014Z,43.45
2023-03-02T12:31:24.248Z,41.15
2023-03-02T12:36:32.277Z,42.65
2023-03-02T12:42:08.374Z,37.28
2023-03-02T12:47:16.698Z,42.33
2023-03-02T12:52:23.882Z,45.08
2023-03-02T12:57:25.748Z,45.42
2023-03-02T13:02:30.142Z,41.72
2023-03-02T13:07:44.302Z,43.55
2023-03-02T13:12:46.378Z,44.05
2023-03-02T13:17:59.648Z,45.75
2023-03-02T13:23:01.602Z,48.20
2023-03-02T13:28:08.088Z,47.78
2023-03-02T13:33:22.433Z,40.90
2023-03-02T13:38:32.732Z,39.53
2023-03-02T13:43:37.948Z,39.42
2023-03-02T13:48:39.516Z,42.33
2023-03-02T13:53:45.510Z,41.17
2023-03-02T13:58:47.499Z,40.85
2023-03-02T14:03:49.142Z,39.75
2023-03-02T14:08:50.696Z,40.55
2023-03-02T14:13:54.955Z,37.17
2023-03-02T14:18:56.550Z,32.17
2023-03-02T14:23:59.049Z,33.90
2023-03-02T14:29:07.740Z,30.30
2023-03-02T14:34:12.678Z,29.13
2023-03-02T14:39:22.254Z,29.75
2023-03-02T14:44:23.861Z,29.65
2023-03-02T14:49:25.586Z,23.23
2023-03-02T14:54:30.808Z,27.42
2023-03-02T14:59:32.380Z,22.08
2023-03-02T15:04:34.703Z,22.48
2023-03-02T15:09:36.242Z,23.38
2023-03-02T15:14:38.064Z,22.55
2023-03-02T15:19:39.593Z,20.85
2023-03-02T15:24:41.468Z,21.15
2023-03-02T15:29:47.109Z,24.20
2023-03-02T15:34:48.682Z,30.30
2023-03-02T15:39:55.363Z,34.53
2023-03-02T15:44:57.114Z,34.75
2023-03-02T15:49:58.699Z,29.75
2023-03-02T15:55:04.295Z,25.27
2023-03-02T16:00:08.378Z,24.48
2023-03-02T16:05:10.459Z,26.17
2023-03-02T16:10:15.370Z,21.17
2023-03-02T16:15:17.062Z,24.00
2023-03-02T16:20:18.798Z,20.55
2023-03-02T16:25:20.648Z,19.25
2023-03-02T16:30:23.579Z,18.75
2023-03-02T16:35:25.983Z,19.35
2023-03-02T16:40:28.085Z,22.02
2023-03-02T16:45:32.680Z,21.48
2023-03-02T16:50:34.380Z,20.63
2023-03-02T16:55:39.194Z,18.35
2023-03-02T17:00:42.617Z,15.55
2023-03-02T17:05:44.404Z,14.57
2023-03-02T17:10:46.026Z,15.65
2023-03-02T17:15:48.092Z,15.73
2023-03-02T17:20:54.402Z,13.25
2023-03-02T17:25:58.547Z,13.38
2023-03-02T17:31:01.926Z,16.17
2023-03-02T17:36:07.468Z,14.65
2023-03-02T17:41:10.968Z,13.20
2023-03-02T17:46:22.717Z,15.60
2023-03-02T17:51:26.011Z,15.30
2023-03-02T17:56:27.992Z,16.73
2023-03-02T18:01:29.969Z,13.43
2023-03-02T18:06:31.511Z,14.30
2023-03-02T18:11:33.366Z,16.90
2023-03-02T18:16:35.557Z,19.33
2023-03-02T18:21:39.716Z,19.83
2023-03-02T18:26:41.654Z,17.25
2023-03-02T18:31:43.372Z,13.68
2023-03-02T18:36:45.035Z,14.40
2023-03-02T18:41:47.045Z,15.35
2023-03-02T18:46:48.556Z,17.02
2023-03-02T18:51:50.159Z,15.60
2023-03-02T18:56:51.793Z,17.00
2023-03-02T19:01:53.296Z,17.05
2023-03-02T19:07:00.660Z,16.63
2023-03-02T19:12:02.451Z,18.67
2023-03-02T19:17:04.022Z,17.20
2023-03-02T19:22:06.461Z,18.77
2023-03-02T19:27:09.713Z,19.27
2023-03-02T19:32:14.738Z,18.15
2023-03-02T19:37:16.581Z,21.25
2023-03-02T19:42:18.048Z,20.05
2023-03-02T19:47:19.562Z,20.88
2023-03-02T19:52:21.080Z,19.13
2023-03-02T19:57:24.954Z,23.45
2023-03-02T20:02:26.830Z,25.10
2023-03-02T20:07:28.519Z,23.00
2023-03-02T20:12:30.047Z,25.05
2023-03-02T20:17:31.626Z,20.95
2023-03-02T20:22:33.195Z,23.30
2023-03-02T20:27:34.735Z,22.30
2023-03-02T20:32:36.258Z,28.48
2023-03-02T20:37:38.240Z,28.15
2023-03-02T20:42:41.234Z,28.42
2023-03-02T20:47:44.208Z,23.25
2023-03-02T20:52:45.739Z,26.98
2023-03-02T20:57:48.592Z,24.55
2023-03-02T21:02:50.115Z,23.90
2023-03-02T21:07:51.766Z,24.23
2023-03-02T21:12:53.315Z,26.65
2023-03-02T21:17:56.473Z,24.90
2023-03-02T21:22:59.536Z,30.05
2023-03-02T21:28:01.647Z,29.23
2023-03-02T21:33:03.498Z,30.70
2023-03-02T21:38:05.509Z,27.05
2023-03-02T21:43:07.441Z,21.13
2023-03-02T21:48:09.070Z,19.02
2023-03-02T21:53:10.600Z,23.33
2023-03-02T21:58:12.525Z,20.77
2023-03-02T22:03:15.034Z,23.17
2023-03-02T22:08:18.512Z,24.88
2023-03-02T22:13:26.314Z,18.77
2023-03-02T22:23:29.384Z,17.52
2023-03-02T22:28:30.848Z,17.70
2023-03-02T22:33:33.902Z,16.70
2023-03-02T22:38:35.518Z,19.42
2023-03-02T22:43:37.005Z,18.05
2023-03-02T22:48:38.649Z,15.13
2023-03-02T22:53:49.225Z,9.63
2023-03-02T22:58:51.861Z,9.18
2023-03-02T23:03:57.120Z,11.02
2023-03-02T23:09:04.226Z,11.50
2023-03-02T23:14:49.401Z,11.97
2023-03-02T23:19:51.311Z,6.75
2023-03-02T23:24:52.847Z,8.60
2023-03-02T23:29:54.443Z,11.15
2023-03-02T23:34:56.396Z,9.20
2023-03-02T23:39:57.877Z,8.57
2023-03-02T23:44:59.384Z,10.45
2023-03-02T23:50:00.915Z,7.70
2023-03-02T23:55:02.464Z,10.32
